createdAt,value
2018-05-14T00:02:01.139Z,34.20
2018-05-14T00:04:29.425Z,36.22
2018-05-14T00:06:57.814Z,33.13
2018-05-14T00:09:26.239Z,30.23
2018-05-14T00:11:54.516Z,28.37
2018-05-14T00:14:22.958Z,27.03
2018-05-14T00:16:51.300Z,25.00
2018-05-14T00:19:19.551Z,19.70
2018-05-14T00:21:47.853Z,22.87
2018-05-14T00:24:16.148Z,22.08
2018-05-14T00:26:44.471Z,20.50
2018-05-14T00:29:12.773Z,22.93
2018-05-14T00:31:41.102Z,24.30
2018-05-14T00:34:09.408Z,21.33
2018-05-14T00:36:37.728Z,21.30
2018-05-14T00:39:06.031Z,24.07
2018-05-14T00:41:34.302Z,21.93
2018-05-14T00:44:02.717Z,22.63
2018-05-14T00:46:30.970Z,22.53
2018-05-14T00:48:59.916Z,24.33
2018-05-14T00:51:28.190Z,24.40
2018-05-14T00:53:56.497Z,22.77
2018-05-14T00:56:24.769Z,22.33
2018-05-14T00:58:53.101Z,24.17
2018-05-14T01:01:21.366Z,22.40
2018-05-14T01:03:49.679Z,19.93
2018-05-14T01:06:18.050Z,21.43
2018-05-14T01:08:46.342Z,20.73
2018-05-14T01:11:14.634Z,21.87
2018-05-14T01:13:42.946Z,20.63
2018-05-14T01:16:11.574Z,20.70
2018-05-14T01:18:40.553Z,17.63
2018-05-14T01:21:08.861Z,21.67
2018-05-14T01:23:37.163Z,26.70
2018-05-14T01:26:05.536Z,21.00
2018-05-14T01:28:33.866Z,22.90
2018-05-14T01:31:02.194Z,19.95
2018-05-14T01:33:30.463Z,19.73
2018-05-14T01:35:58.750Z,24.10
2018-05-14T01:38:27.034Z,18.63
2018-05-14T01:40:55.358Z,16.17
2018-05-14T01:43:23.682Z,16.33
2018-05-14T01:45:52.016Z,16.77
2018-05-14T01:48:20.299Z,15.10
2018-05-14T01:50:48.620Z,15.93
2018-05-14T01:53:16.931Z,16.83
2018-05-14T01:55:45.266Z,14.80
2018-05-14T01:58:13.584Z,14.02
2018-05-14T02:00:41.859Z,15.50
2018-05-14T02:03:10.165Z,13.30
2018-05-14T02:05:38.463Z,12.53
2018-05-14T02:08:06.768Z,15.33
2018-05-14T02:10:35.041Z,14.60
2018-05-14T02:13:03.337Z,11.60
2018-05-14T02:15:31.612Z,9.33
2018-05-14T02:17:59.901Z,7.37
2018-05-14T02:20:28.162Z,7.47
2018-05-14T02:22:56.817Z,7.13
2018-05-14T02:25:25.083Z,6.40
2018-05-14T02:27:53.371Z,6.40
2018-05-14T02:30:21.690Z,6.07
2018-05-14T02:32:49.999Z,5.90
2018-05-14T02:35:18.284Z,5.18
2018-05-14T02:37:46.597Z,5.33
2018-05-14T02:40:14.869Z,7.27
2018-05-14T02:42:43.150Z,6.03
2018-05-14T02:45:11.609Z,6.50
2018-05-14T02:47:39.885Z,9.60
2018-05-14T02:50:08.390Z,5.40
2018-05-14T02:52:36.667Z,5.60
2018-05-14T02:55:05.727Z,6.40
2018-05-14T02:57:34.025Z,5.83
2018-05-14T03:00:02.326Z,12.07
2018-05-14T03:02:30.593Z,6.00
2018-05-14T03:04:58.957Z,6.70
2018-05-14T03:07:27.134Z,7.53
2018-05-14T03:09:55.418Z,6.50
2018-05-14T03:12:23.687Z,6.50
2018-05-14T03:14:51.974Z,7.03
2018-05-14T03:17:20.251Z,8.83
2018-05-14T03:19:48.546Z,8.23
2018-05-14T03:22:17.596Z,8.33
2018-05-14T03:24:45.944Z,8.77
2018-05-14T03:27:14.205Z,10.05
2018-05-14T03:29:42.555Z,8.90
2018-05-14T03:32:10.876Z,9.07
2018-05-14T03:34:39.200Z,9.40
2018-05-14T03:37:07.482Z,9.73
2018-05-14T03:39:35.769Z,10.53
2018-05-14T03:42:04.818Z,13.60
2018-05-14T03:44:33.122Z,10.37
2018-05-14T03:47:01.410Z,11.00
2018-05-14T03:49:29.696Z,11.53
2018-05-14T03:51:58.049Z,11.47
2018-05-14T03:54:26.315Z,11.93
2018-05-14T03:56:54.666Z,12.95
2018-05-14T03:59:34.766Z,11.53
2018-05-14T04:02:23.657Z,12.30
2018-05-14T04:05:03.762Z,11.38
2018-05-14T04:07:32.059Z,11.80
2018-05-14T04:10:00.348Z,14.85
2018-05-14T04:12:30.052Z,13.20
2018-05-14T04:14:58.328Z,14.23
2018-05-14T04:17:26.633Z,13.20
2018-05-14T04:19:54.913Z,14.30
2018-05-14T04:22:23.471Z,15.18
2018-05-14T04:24:51.902Z,13.20
2018-05-14T04:27:20.235Z,18.70
2018-05-14T04:29:48.734Z,19.13
2018-05-14T04:32:17.026Z,17.77
2018-05-14T04:34:52.184Z,17.52
2018-05-14T04:37:22.574Z,16.50
2018-05-14T04:39:50.812Z,16.40
2018-05-14T04:42:19.123Z,13.77
2018-05-14T04:44:47.418Z,16.40
2018-05-14T04:47:15.695Z,14.63
2018-05-14T04:49:44.625Z,16.30
2018-05-14T04:52:12.925Z,16.50
2018-05-14T04:54:41.271Z,21.50
2018-05-14T04:57:09.718Z,18.27
2018-05-14T04:59:38.034Z,21.20
2018-05-14T05:02:06.302Z,18.30
2018-05-14T05:04:35.393Z,17.30
2018-05-14T05:07:03.969Z,18.60
2018-05-14T05:09:32.303Z,22.03
2018-05-14T05:12:01.577Z,19.43
2018-05-14T05:14:29.894Z,18.30
2018-05-14T05:16:58.242Z,25.43
2018-05-14T05:19:26.579Z,17.83
2018-05-14T05:21:54.890Z,24.97
2018-05-14T05:24:23.262Z,18.42
2018-05-14T05:26:51.601Z,27.23
2018-05-14T05:29:19.866Z,23.37
2018-05-14T05:31:48.173Z,23.40
2018-05-14T05:34:16.443Z,26.42
2018-05-14T05:36:44.802Z,22.70
2018-05-14T05:39:14.050Z,23.85
2018-05-14T05:41:42.346Z,21.20
2018-05-14T05:44:10.622Z,23.50
2018-05-14T05:46:38.997Z,21.08
2018-05-14T05:49:07.245Z,23.77
2018-05-14T05:51:35.593Z,23.10
2018-05-14T05:54:04.686Z,23.40
2018-05-14T05:56:32.965Z,24.23
2018-05-14T05:59:01.238Z,23.27
2018-05-14T06:01:29.558Z,27.47
2018-05-14T06:03:57.883Z,26.90
2018-05-14T06:06:26.170Z,38.60
2018-05-14T06:08:54.488Z,22.07
2018-05-14T06:11:22.817Z,23.87
2018-05-14T06:13:51.192Z,30.63
2018-05-14T06:16:19.818Z,29.73
2018-05-14T06:18:48.157Z,23.27
2018-05-14T06:21:16.437Z,23.03
2018-05-14T06:23:44.755Z,27.07
2018-05-14T06:26:13.053Z,22.33
2018-05-14T06:28:41.575Z,23.40
2018-05-14T06:31:09.867Z,28.90
2018-05-14T06:33:38.202Z,23.30
2018-05-14T06:36:06.739Z,26.27
2018-05-14T06:38:34.939Z,23.00
2018-05-14T06:41:04.228Z,22.26
2018-05-14T06:43:32.859Z,26.67
2018-05-14T06:46:01.150Z,25.40
2018-05-14T06:48:29.486Z,24.47
2018-05-14T06:50:58.011Z,27.37
2018-05-14T06:53:28.188Z,28.63
2018-05-14T06:55:56.494Z,29.30
2018-05-14T06:58:25.709Z,29.10
2018-05-14T07:00:54.031Z,29.10
2018-05-14T07:03:22.289Z,29.17
2018-05-14T07:05:50.631Z,26.92
2018-05-14T07:08:18.959Z,32.27
2018-05-14T07:10:47.301Z,26.10
2018-05-14T07:13:15.631Z,27.85
2018-05-14T07:15:43.931Z,26.60
2018-05-14T07:18:13.072Z,23.87
2018-05-14T07:20:43.351Z,24.33
2018-05-14T07:23:13.002Z,26.62
2018-05-14T07:25:41.314Z,27.80
2018-05-14T07:28:09.668Z,27.35
2018-05-14T07:30:38.031Z,26.90
2018-05-14T07:33:06.574Z,24.37
2018-05-14T07:35:34.902Z,25.40
2018-05-14T07:38:03.276Z,25.50
2018-05-14T07:40:31.700Z,24.20
2018-05-14T07:43:00.168Z,25.30
2018-05-14T07:45:28.980Z,25.87
2018-05-14T07:47:57.280Z,23.13
2018-05-14T07:50:25.546Z,21.97
2018-05-14T07:52:53.862Z,28.50
2018-05-14T07:55:22.141Z,31.17
2018-05-14T07:57:50.450Z,24.57
2018-05-14T08:00:18.730Z,25.40
2018-05-14T08:02:47.054Z,30.30
2018-05-14T08:05:15.354Z,29.90
2018-05-14T08:07:43.655Z,25.90
2018-05-14T08:10:12.718Z,23.80
2018-05-14T08:12:41.026Z,22.60
2018-05-14T08:15:11.426Z,27.73
2018-05-14T08:17:39.895Z,21.30
2018-05-14T08:20:08.236Z,23.65
2018-05-14T08:22:36.503Z,23.60
2018-05-14T08:25:04.915Z,20.53
2018-05-14T08:27:33.362Z,22.07
2018-05-14T08:30:01.671Z,24.57
2018-05-14T08:32:29.951Z,24.40
2018-05-14T08:34:58.354Z,23.70
2018-05-14T08:37:26.630Z,21.97
2018-05-14T08:39:55.112Z,21.13
2018-05-14T08:42:23.396Z,23.73
2018-05-14T08:44:51.670Z,22.27
2018-05-14T08:47:19.976Z,24.93
2018-05-14T08:49:48.272Z,24.83
2018-05-14T08:52:16.572Z,25.15
2018-05-14T08:54:44.914Z,20.35
2018-05-14T08:57:13.152Z,23.40
2018-05-14T08:59:41.827Z,19.98
2018-05-14T09:02:10.110Z,22.57
2018-05-14T09:04:38.398Z,22.67
2018-05-14T09:07:06.739Z,23.37
2018-05-14T09:09:35.022Z,25.00
2018-05-14T09:12:03.418Z,26.37
2018-05-14T09:14:31.683Z,25.37
2018-05-14T09:17:00.951Z,25.00
2018-05-14T09:19:29.278Z,23.20
2018-05-14T09:21:57.549Z,21.63
2018-05-14T09:24:25.818Z,24.13
2018-05-14T09:26:54.208Z,23.33
2018-05-14T09:29:22.525Z,23.27
2018-05-14T09:31:50.866Z,23.13
2018-05-14T09:34:19.158Z,25.95
2018-05-14T09:36:47.480Z,26.07
2018-05-14T09:39:15.802Z,29.93
2018-05-14T09:41:44.085Z,25.77
2018-05-14T09:44:12.902Z,23.70
2018-05-14T09:46:41.777Z,24.77
2018-05-14T09:49:10.097Z,22.92
2018-05-14T09:51:38.424Z,25.20
2018-05-14T09:54:06.737Z,28.37
2018-05-14T09:56:35.006Z,22.87
2018-05-14T09:59:03.303Z,28.47
2018-05-14T10:01:31.605Z,24.83
2018-05-14T10:03:59.923Z,22.53
2018-05-14T10:06:28.189Z,24.80
2018-05-14T10:08:56.486Z,28.97
2018-05-14T10:11:24.819Z,26.80
2018-05-14T10:13:53.300Z,22.00
2018-05-14T10:16:21.608Z,23.40
2018-05-14T10:18:50.074Z,22.17
2018-05-14T10:21:18.222Z,24.15
2018-05-14T10:23:46.554Z,24.40
2018-05-14T10:26:14.847Z,22.15
2018-05-14T10:28:43.135Z,37.17
2018-05-14T10:31:11.501Z,23.80
2018-05-14T10:33:39.782Z,28.67
2018-05-14T10:36:08.097Z,24.50
2018-05-14T10:38:36.502Z,22.60
2018-05-14T10:41:06.600Z,24.42
2018-05-14T10:43:34.924Z,29.50
2018-05-14T10:46:03.329Z,34.13
2018-05-14T10:48:31.708Z,22.60
2018-05-14T10:51:00.030Z,19.70
2018-05-14T10:53:28.311Z,20.40
2018-05-14T10:55:56.664Z,19.33
2018-05-14T10:58:24.967Z,19.50
2018-05-14T11:00:53.257Z,17.73
2018-05-14T11:03:23.723Z,18.40
2018-05-14T11:05:52.071Z,18.50
2018-05-14T11:08:21.071Z,20.25
2018-05-14T11:10:49.374Z,22.70
2018-05-14T11:13:17.653Z,18.90
2018-05-14T11:15:45.941Z,18.90
2018-05-14T11:18:14.278Z,18.57
2018-05-14T11:20:42.575Z,18.80
2018-05-14T11:23:11.081Z,21.90
2018-05-14T11:25:39.326Z,19.90
2018-05-14T11:28:07.619Z,16.53
2018-05-14T11:30:35.996Z,18.83
2018-05-14T11:33:04.298Z,15.70
2018-05-14T11:35:32.578Z,16.50
2018-05-14T11:38:01.052Z,19.83
2018-05-14T11:40:29.321Z,19.00
2018-05-14T11:42:57.662Z,15.67
2018-05-14T11:45:25.963Z,17.80
2018-05-14T11:47:54.315Z,18.90
2018-05-14T11:50:22.605Z,19.97
2018-05-14T11:52:50.898Z,22.07
2018-05-14T11:55:19.236Z,20.15
2018-05-14T11:57:47.519Z,24.87
2018-05-14T12:00:15.814Z,30.63
2018-05-14T12:02:44.375Z,19.87
2018-05-14T12:05:13.579Z,20.37
2018-05-14T12:07:41.849Z,21.37
2018-05-14T12:10:10.259Z,21.55
2018-05-14T12:12:38.453Z,21.23
2018-05-14T12:15:06.762Z,21.23
2018-05-14T12:17:35.073Z,22.20
2018-05-14T12:20:04.086Z,21.10
2018-05-14T12:22:32.423Z,26.63
2018-05-14T12:25:02.009Z,23.47
2018-05-14T12:27:31.102Z,23.85
2018-05-14T12:29:59.377Z,21.30
2018-05-14T12:32:27.707Z,27.97
2018-05-14T12:34:56.007Z,22.10
2018-05-14T12:37:24.367Z,22.73
2018-05-14T12:39:52.626Z,20.40
2018-05-14T12:42:20.951Z,21.50
2018-05-14T12:44:49.287Z,22.73
2018-05-14T12:47:17.573Z,22.70
2018-05-14T12:49:45.933Z,25.00
2018-05-14T12:52:14.315Z,20.05
2018-05-14T12:54:42.615Z,22.00
2018-05-14T12:57:10.971Z,27.23
2018-05-14T12:59:39.220Z,28.83
2018-05-14T13:02:07.539Z,19.37
2018-05-14T13:04:35.917Z,23.20
2018-05-14T13:07:04.227Z,20.77
2018-05-14T13:09:32.576Z,17.83
2018-05-14T13:12:01.044Z,19.43
2018-05-14T13:14:29.338Z,17.50
2018-05-14T13:16:57.609Z,16.70
2018-05-14T13:19:26.025Z,18.20
2018-05-14T13:21:54.354Z,15.23
2018-05-14T13:24:22.657Z,20.70
2018-05-14T13:26:50.992Z,17.57
2018-05-14T13:29:19.268Z,14.70
2018-05-14T13:31:47.694Z,15.17
2018-05-14T13:34:16.019Z,14.80
2018-05-14T13:36:44.295Z,20.00
2018-05-14T13:39:12.610Z,17.63
2018-05-14T13:41:40.886Z,17.87
2018-05-14T13:44:09.567Z,17.48
2018-05-14T13:46:37.843Z,17.17
2018-05-14T13:49:06.947Z,14.63
2018-05-14T13:51:35.233Z,11.53
2018-05-14T13:54:04.191Z,15.30
2018-05-14T13:56:32.600Z,13.73
2018-05-14T13:59:00.876Z,12.77
2018-05-14T14:01:29.229Z,14.03
2018-05-14T14:03:58.571Z,15.43
2018-05-14T14:06:27.478Z,11.63
2018-05-14T14:08:55.771Z,18.67
2018-05-14T14:11:24.107Z,14.37
2018-05-14T14:13:52.840Z,12.87
2018-05-14T14:16:21.141Z,19.00
2018-05-14T14:18:49.487Z,13.17
2018-05-14T14:21:17.863Z,20.27
2018-05-14T14:23:46.380Z,13.50
2018-05-14T14:26:14.468Z,12.93
2018-05-14T14:28:42.761Z,13.73
2018-05-14T14:31:11.043Z,11.80
2018-05-14T14:33:39.426Z,12.30
2018-05-14T14:36:08.690Z,17.50
2018-05-14T14:38:36.962Z,12.63
2018-05-14T14:41:05.322Z,11.97
2018-05-14T14:43:34.058Z,15.87
2018-05-14T14:46:02.396Z,18.90
2018-05-14T14:48:30.907Z,13.80
2018-05-14T14:50:59.331Z,12.37
2018-05-14T14:53:27.683Z,12.90
2018-05-14T14:55:55.986Z,14.07
2018-05-14T14:58:24.334Z,17.30
2018-05-14T15:00:52.736Z,14.57
2018-05-14T15:03:21.019Z,12.90
2018-05-14T15:05:49.336Z,13.23
2018-05-14T15:08:17.647Z,13.75
2018-05-14T15:10:45.973Z,12.00
2018-05-14T15:13:14.297Z,13.73
2018-05-14T15:15:42.597Z,12.60
2018-05-14T15:18:11.099Z,13.13
2018-05-14T15:20:39.560Z,19.77
2018-05-14T15:23:07.866Z,19.43
2018-05-14T15:25:36.251Z,11.23
2018-05-14T15:28:04.781Z,14.40
2018-05-14T15:30:33.109Z,11.73
2018-05-14T15:33:02.153Z,15.93
2018-05-14T15:35:30.451Z,11.50
2018-05-14T15:37:59.321Z,12.97
2018-05-14T15:40:27.683Z,14.80
2018-05-14T15:42:55.996Z,13.63
2018-05-14T15:45:24.309Z,12.90
2018-05-14T15:47:52.661Z,13.30
2018-05-14T15:50:21.264Z,11.65
2018-05-14T15:52:49.535Z,11.80
2018-05-14T15:55:17.986Z,16.07
2018-05-14T15:57:46.285Z,14.70
2018-05-14T16:00:14.707Z,11.90
2018-05-14T16:02:46.199Z,12.63
2018-05-14T16:05:15.632Z,13.02
2018-05-14T16:07:45.283Z,12.13
2018-05-14T16:10:15.622Z,16.98
2018-05-14T16:12:45.999Z,14.37
2018-05-14T16:15:16.454Z,13.07
2018-05-14T16:17:48.012Z,18.63
2018-05-14T16:20:17.963Z,13.62
2018-05-14T16:22:47.205Z,15.20
2018-05-14T16:25:15.635Z,13.02
2018-05-14T16:27:44.122Z,14.80
2018-05-14T16:30:12.430Z,15.57
2018-05-14T16:32:40.770Z,21.80
2018-05-14T16:35:09.105Z,15.23
2018-05-14T16:37:37.515Z,18.57
2018-05-14T16:40:05.844Z,17.87
2018-05-14T16:42:34.297Z,20.10
2018-05-14T16:45:02.567Z,14.40
2018-05-14T16:47:31.321Z,17.73
2018-05-14T16:49:59.762Z,19.20
2018-05-14T16:52:28.103Z,17.50
2018-05-14T16:54:56.370Z,16.27
2018-05-14T16:57:24.827Z,17.93
2018-05-14T16:59:53.818Z,18.13
2018-05-14T17:02:24.252Z,18.43
2018-05-14T17:04:52.814Z,17.60
2018-05-14T17:07:21.270Z,18.20
2018-05-14T17:09:51.544Z,23.60
2018-05-14T17:12:20.023Z,17.63
2018-05-14T17:14:48.344Z,22.13
2018-05-14T17:17:22.321Z,17.73
2018-05-14T17:19:51.087Z,18.52
2018-05-14T17:22:19.440Z,16.30
2018-05-14T17:24:48.011Z,19.23
2018-05-14T17:27:16.410Z,16.90
2018-05-14T17:29:44.996Z,17.10
2018-05-14T17:32:25.373Z,16.20
2018-05-14T17:34:54.348Z,17.50
2018-05-14T17:37:26.414Z,19.87
2018-05-14T17:39:58.273Z,18.13
2018-05-14T17:42:27.707Z,17.60
2018-05-14T17:44:56.926Z,16.20
2018-05-14T17:47:25.361Z,21.10
2018-05-14T17:49:53.972Z,18.77
2018-05-14T17:52:22.252Z,30.60
2018-05-14T17:54:50.568Z,27.13
2018-05-14T17:57:18.987Z,15.95
2018-05-14T17:59:47.318Z,16.10
2018-05-14T18:02:15.629Z,21.03
2018-05-14T18:04:44.014Z,16.05
2018-05-14T18:07:12.378Z,13.95
2018-05-14T18:09:41.515Z,10.13
2018-05-14T18:12:10.190Z,11.05
2018-05-14T18:14:38.507Z,14.27
2018-05-14T18:17:06.846Z,12.53
2018-05-14T18:19:40.729Z,12.43
2018-05-14T18:22:13.321Z,14.60
2018-05-14T18:24:47.106Z,10.10
2018-05-14T18:27:20.994Z,13.00
2018-05-14T18:29:55.207Z,10.17
2018-05-14T18:32:23.911Z,15.83
2018-05-14T18:34:56.186Z,11.37
2018-05-14T18:37:24.674Z,11.33
2018-05-14T18:39:53.054Z,18.43
2018-05-14T18:42:21.605Z,10.10
2018-05-14T18:44:49.921Z,12.43
2018-05-14T18:47:18.290Z,15.20
2018-05-14T18:49:46.726Z,10.37
2018-05-14T18:52:15.023Z,11.30
2018-05-14T18:54:43.545Z,9.83
2018-05-14T18:57:11.919Z,10.10
2018-05-14T18:59:40.911Z,10.43
2018-05-14T19:02:09.262Z,11.32
2018-05-14T19:04:37.578Z,15.17
2018-05-14T19:07:05.879Z,11.10
2018-05-14T19:09:34.212Z,11.57
2018-05-14T19:12:02.599Z,15.23
2018-05-14T19:14:30.900Z,16.50
2018-05-14T19:17:04.780Z,16.57
2018-05-14T19:19:33.088Z,13.87
2018-05-14T19:22:01.435Z,17.60
2018-05-14T19:24:29.746Z,13.30
2018-05-14T19:26:58.023Z,19.50
2018-05-14T19:29:31.959Z,14.10
2018-05-14T19:32:00.373Z,13.00
2018-05-14T19:34:34.476Z,15.67
2018-05-14T19:37:02.778Z,22.53
2018-05-14T19:39:36.603Z,19.40
2018-05-14T19:42:04.886Z,13.40
2018-05-14T19:44:33.202Z,15.60
2018-05-14T19:47:01.609Z,22.25
2018-05-14T19:49:29.914Z,14.40
2018-05-14T19:51:58.215Z,12.00
2018-05-14T19:54:26.522Z,12.50
2018-05-14T19:56:54.816Z,16.80
2018-05-14T19:59:23.135Z,15.07
2018-05-14T20:01:51.410Z,12.17
2018-05-14T20:04:19.741Z,10.30
2018-05-14T20:06:48.117Z,11.60
2018-05-14T20:09:16.363Z,10.88
2018-05-14T20:11:44.727Z,11.00
2018-05-14T20:14:12.983Z,10.40
2018-05-14T20:16:41.275Z,14.63
2018-05-14T20:19:09.595Z,11.45
2018-05-14T20:21:37.925Z,24.07
2018-05-14T20:24:06.215Z,11.67
2018-05-14T20:26:36.640Z,19.10
2018-05-14T20:29:05.553Z,46.50
2018-05-14T20:31:34.395Z,11.83
2018-05-14T20:34:03.162Z,13.60
2018-05-14T20:36:31.472Z,20.23
2018-05-14T20:38:59.759Z,13.70
2018-05-14T20:41:28.396Z,21.43
2018-05-14T20:43:56.974Z,20.13
2018-05-14T20:46:26.050Z,13.10
2018-05-14T20:48:54.456Z,13.33
2018-05-14T20:51:22.861Z,14.53
2018-05-14T20:53:51.410Z,11.23
2018-05-14T20:56:20.444Z,16.77
2018-05-14T20:58:48.706Z,11.90
2018-05-14T21:01:17.150Z,13.07
2018-05-14T21:03:45.519Z,12.23
2018-05-14T21:06:13.833Z,14.20
2018-05-14T21:08:42.130Z,19.47
2018-05-14T21:11:12.202Z,15.40
2018-05-14T21:13:40.544Z,15.10
2018-05-14T21:16:08.821Z,25.67
2018-05-14T21:18:37.111Z,14.33
2018-05-14T21:21:05.392Z,11.30
2018-05-14T21:23:33.763Z,12.53
2018-05-14T21:26:02.056Z,10.90
2018-05-14T21:28:30.389Z,20.00
2018-05-14T21:30:59.127Z,12.83
2018-05-14T21:33:27.426Z,11.80
2018-05-14T21:35:55.731Z,14.87
2018-05-14T21:38:24.046Z,10.17
2018-05-14T21:40:52.840Z,13.17
2018-05-14T21:43:21.179Z,11.10
2018-05-14T21:45:49.489Z,20.05
2018-05-14T21:48:18.594Z,12.55
2018-05-14T21:50:46.883Z,11.57
2018-05-14T21:53:16.542Z,13.18
2018-05-14T21:55:44.872Z,10.80
2018-05-14T21:58:13.149Z,22.30
2018-05-14T22:00:42.299Z,13.43
2018-05-14T22:03:11.920Z,13.53
2018-05-14T22:05:50.957Z,12.50
2018-05-14T22:08:19.243Z,17.97
2018-05-14T22:10:47.703Z,22.77
2018-05-14T22:13:15.991Z,14.50
2018-05-14T22:15:46.004Z,12.80
2018-05-14T22:18:14.376Z,20.35
2018-05-14T22:20:42.756Z,13.10
2018-05-14T22:23:13.194Z,15.88
2018-05-14T22:25:41.686Z,16.43
2018-05-14T22:28:10.033Z,13.43
2018-05-14T22:30:38.525Z,17.20
2018-05-14T22:33:06.818Z,13.97
2018-05-14T22:35:35.122Z,15.10
2018-05-14T22:38:04.476Z,13.25
2018-05-14T22:40:32.853Z,15.00
2018-05-14T22:43:02.459Z,17.43
2018-05-14T22:45:31.523Z,14.50
2018-05-14T22:47:59.804Z,19.70
2018-05-14T22:50:28.476Z,17.48
2018-05-14T22:52:56.938Z,12.43
2018-05-14T22:55:25.254Z,15.10
2018-05-14T22:57:53.554Z,12.50
2018-05-14T23:00:27.580Z,13.82
2018-05-14T23:02:56.210Z,12.13
2018-05-14T23:05:24.506Z,12.43
2018-05-14T23:07:52.835Z,14.67
2018-05-14T23:10:21.172Z,12.90
2018-05-14T23:12:49.483Z,13.33
2018-05-14T23:15:17.773Z,12.88
2018-05-14T23:17:46.099Z,12.53
2018-05-14T23:20:14.352Z,12.43
2018-05-14T23:22:42.696Z,13.13
2018-05-14T23:25:11.062Z,13.07
2018-05-14T23:27:39.354Z,12.37
2018-05-14T23:30:07.628Z,14.20
2018-05-14T23:32:35.983Z,12.90
2018-05-14T23:35:05.191Z,14.52
2018-05-14T23:37:33.490Z,13.87
2018-05-14T23:40:01.778Z,15.17
2018-05-14T23:42:30.092Z,15.03
2018-05-14T23:44:58.366Z,14.60
2018-05-14T23:47:26.637Z,22.63
2018-05-14T23:49:54.976Z,13.97
2018-05-14T23:52:23.314Z,15.30
2018-05-14T23:54:51.620Z,14.15
2018-05-14T23:57:19.903Z,26.53
2018-05-14T23:59:48.211Z,15.00
